Time;durP1;ratioP1;P1;durP2;ratioP2;P2;SDS_P1;SDS_P2;PMS_P1;PMS_P2;Temp;Humidity;BMP_temperature;BMP_pressure;BME280_temperature;BME280_humidity;BME280_pressure;Samples;Min_cycle;Max_cycle;Signal;HPM_P1;HPM_P2
2022/08/04 00:00:06;;;;;;;8.83;3.13;;;18.40;40.00;;;;;;5062686;28;46507;-71
2022/08/04 00:02:37;;;;;;;8.90;3.63;;;18.40;39.60;;;;;;5061565;28;46292;-72
2022/08/04 00:05:05;;;;;;;14.43;3.03;;;18.40;39.40;;;;;;5061747;28;46398;-71
2022/08/04 00:07:45;;;;;;;10.10;2.70;;;18.30;40.50;;;;;;5061498;28;46348;-71
2022/08/04 00:10:15;;;;;;;12.13;3.07;;;18.20;41.20;;;;;;5061511;28;46510;-72
2022/08/04 00:12:43;;;;;;;7.23;3.20;;;18.10;41.00;;;;;;5063081;28;46446;-71
2022/08/04 00:15:12;;;;;;;7.90;3.43;;;18.10;40.10;;;;;;5061052;28;48246;-71
2022/08/04 00:17:44;;;;;;;11.73;3.40;;;18.10;41.40;;;;;;5059313;28;46357;-71
2022/08/04 00:20:15;;;;;;;8.10;3.30;;;18.00;41.50;;;;;;5061969;28;46403;-71
2022/08/04 00:22:44;;;;;;;6.03;3.20;;;18.00;42.00;;;;;;5061969;28;46358;-71
2022/08/04 00:25:10;;;;;;;7.90;3.00;;;17.90;41.20;;;;;;5059416;28;47233;-71
2022/08/04 00:27:36;;;;;;;7.20;2.90;;;17.80;42.50;;;;;;5061451;28;46725;-71
2022/08/04 00:30:02;;;;;;;9.70;2.87;;;17.80;42.70;;;;;;5060329;28;46416;-71
2022/08/04 00:32:29;;;;;;;9.10;3.03;;;17.80;42.90;;;;;;5064377;28;46001;-71
2022/08/04 00:34:57;;;;;;;8.93;2.97;;;17.80;42.20;;;;;;5063370;28;47947;-71
2022/08/04 00:37:23;;;;;;;6.70;3.00;;;17.80;43.00;;;;;;5058539;28;46362;-71
2022/08/04 00:39:52;;;;;;;6.63;3.20;;;17.80;42.80;;;;;;5061679;28;46410;-71
2022/08/04 00:42:36;;;;;;;21.63;3.00;;;17.90;42.80;;;;;;5062855;28;46518;-71
2022/08/04 00:45:23;;;;;;;9.23;3.23;;;17.80;41.80;;;;;;5061148;28;46620;-71
2022/08/04 00:47:55;;;;;;;7.40;2.90;;;17.80;42.70;;;;;;5061553;28;46398;-71
2022/08/04 00:50:45;;;;;;;6.30;3.17;;;17.80;42.70;;;;;;5061534;28;46396;-71
2022/08/04 00:53:39;;;;;;;15.43;3.20;;;17.80;42.90;;;;;;5062514;28;46741;-71
2022/08/04 00:56:30;;;;;;;10.33;2.70;;;17.80;43.10;;;;;;5060713;28;45943;-71
2022/08/04 00:59:33;;;;;;;8.70;2.97;;;17.80;42.90;;;;;;5061423;28;46391;-71
2022/08/04 01:02:21;;;;;;;5.50;3.07;;;17.70;43.20;;;;;;5060380;28;46600;-71
2022/08/04 01:05:17;;;;;;;4.30;2.70;;;17.80;42.20;;;;;;5059507;28;46357;-71
2022/08/04 01:07:53;;;;;;;4.87;2.90;;;17.70;43.10;;;;;;5060638;28;47380;-71
2022/08/04 01:10:22;;;;;;;6.67;3.13;;;17.70;42.90;;;;;;5060325;28;46492;-70
2022/08/04 01:12:59;;;;;;;6.97;3.80;;;17.70;42.20;;;;;;5061381;28;46436;-71
2022/08/04 01:16:06;;;;;;;8.70;3.27;;;17.70;43.30;;;;;;5058765;28;46394;-69
2022/08/04 01:18:55;;;;;;;5.97;3.73;;;17.70;43.90;;;;;;5054934;28;47859;-71
2022/08/04 01:21:30;;;;;;;6.80;3.20;;;17.70;44.00;;;;;;5057829;28;46509;-71
2022/08/04 01:24:16;;;;;;;11.87;3.73;;;17.70;43.80;;;;;;5060590;28;46248;-71
2022/08/04 01:26:56;;;;;;;7.90;3.30;;;17.60;44.30;;;;;;5061883;28;46326;-72
2022/08/04 01:29:25;;;;;;;6.17;3.27;;;17.50;44.50;;;;;;5057470;28;46598;-71
2022/08/04 01:31:59;;;;;;;7.43;3.47;;;17.60;44.60;;;;;;5060788;28;46350;-71
2022/08/04 01:34:29;;;;;;;13.00;3.40;;;17.50;44.90;;;;;;5060902;28;46418;-71
2022/08/04 01:37:06;;;;;;;10.43;4.13;;;17.50;45.40;;;;;;5057011;28;46462;-71
2022/08/04 01:39:41;;;;;;;9.63;3.17;;;17.40;45.20;;;;;;5061992;28;46472;-71
2022/08/04 01:42:09;;;;;;;8.70;3.60;;;17.40;45.20;;;;;;5060966;28;46429;-71
2022/08/04 01:44:37;;;;;;;5.30;3.07;;;17.30;45.20;;;;;;5061061;28;46745;-71
2022/08/04 01:47:03;;;;;;;5.97;2.93;;;17.20;45.10;;;;;;5060129;28;46593;-71
2022/08/04 01:49:30;;;;;;;6.83;3.30;;;17.10;45.80;;;;;;5059085;28;47823;-71
2022/08/04 01:51:56;;;;;;;8.43;3.07;;;17.10;46.20;;;;;;5061132;28;46420;-72
2022/08/04 01:54:23;;;;;;;8.83;3.63;;;17.00;45.80;;;;;;5060511;28;48068;-71
2022/08/04 01:56:50;;;;;;;6.97;3.40;;;17.00;46.60;;;;;;5060777;28;46673;-72
2022/08/04 01:59:18;;;;;;;6.37;3.40;;;17.00;46.60;;;;;;5060558;28;48131;-71
2022/08/04 02:01:44;;;;;;;13.33;3.67;;;17.00;46.70;;;;;;5058181;28;47253;-69
2022/08/04 02:04:19;;;;;;;10.80;3.50;;;16.90;46.90;;;;;;5059083;28;46417;-72
2022/08/04 02:07:35;;;;;;;8.23;3.67;;;16.80;47.40;;;;;;5060119;28;46333;-72
2022/08/04 02:10:17;;;;;;;10.13;3.30;;;16.70;48.00;;;;;;5017108;28;46626;-72
2022/08/04 02:13:01;;;;;;;14.17;3.80;;;16.70;47.50;;;;;;5057417;28;46517;-72
2022/08/04 02:15:45;;;;;;;11.77;3.90;;;16.80;47.60;;;;;;5054545;28;46789;-71
2022/08/04 02:18:14;;;;;;;12.53;3.40;;;16.80;47.70;;;;;;5055577;28;46508;-71
2022/08/04 02:20:45;;;;;;;8.87;3.13;;;16.90;47.90;;;;;;5053133;28;46893;-71
2022/08/04 02:23:20;;;;;;;8.03;3.30;;;16.90;47.40;;;;;;5049716;28;46128;-71
2022/08/04 02:25:54;;;;;;;10.13;3.80;;;17.00;47.30;;;;;;5057997;28;46500;-72
2022/08/04 02:28:29;;;;;;;5.00;2.87;;;17.00;47.30;;;;;;5061431;28;46415;-71
2022/08/04 02:31:17;;;;;;;11.30;3.33;;;17.00;47.30;;;;;;5055284;28;46151;-71
2022/08/04 02:33:59;;;;;;;10.60;4.13;;;16.90;47.70;;;;;;5061539;28;46370;-71
2022/08/04 02:36:37;;;;;;;10.70;3.40;;;16.90;47.80;;;;;;5060608;28;45997;-71
2022/08/04 02:39:06;;;;;;;16.90;3.60;;;16.90;47.80;;;;;;5059599;28;46592;-71
2022/08/04 02:41:32;;;;;;;9.57;3.80;;;16.90;48.90;;;;;;5062538;28;46532;-71
2022/08/04 02:44:03;;;;;;;11.30;3.70;;;16.90;47.80;;;;;;5062313;28;47269;-71
2022/08/04 02:46:32;;;;;;;8.50;3.33;;;16.80;47.90;;;;;;5065121;27;46404;-71
2022/08/04 02:49:01;;;;;;;6.23;3.20;;;16.80;48.00;;;;;;5064955;28;46430;-71
2022/08/04 02:51:30;;;;;;;5.80;3.37;;;16.80;48.20;;;;;;5067293;28;47049;-71
2022/08/04 02:53:58;;;;;;;9.00;3.37;;;16.80;48.20;;;;;;5066030;28;46538;-71
2022/08/04 02:56:27;;;;;;;7.30;3.13;;;16.80;48.10;;;;;;5064892;28;45914;-71
2022/08/04 02:58:58;;;;;;;14.63;3.73;;;16.80;48.20;;;;;;5065284;28;46422;-69
2022/08/04 03:01:24;;;;;;;8.77;3.50;;;16.70;48.40;;;;;;5065293;28;48935;-71
2022/08/04 03:04:10;;;;;;;7.13;3.83;;;16.60;48.50;;;;;;5066978;28;46415;-71
2022/08/04 03:07:03;;;;;;;9.70;3.57;;;16.60;48.90;;;;;;5064241;28;45756;-72
2022/08/04 03:09:41;;;;;;;7.67;3.57;;;16.50;49.00;;;;;;5066112;28;46566;-71
2022/08/04 03:12:26;;;;;;;8.43;3.13;;;16.60;49.00;;;;;;5067921;28;47679;-71
2022/08/04 03:15:04;;;;;;;9.80;3.93;;;16.70;49.00;;;;;;5069754;28;46488;-71
2022/08/04 03:18:13;;;;;;;7.50;3.80;;;16.70;48.70;;;;;;5064072;28;46462;-71
2022/08/04 03:21:06;;;;;;;6.50;4.13;;;16.70;49.00;;;;;;5045601;28;46644;-71
2022/08/04 03:24:08;;;;;;;12.07;4.70;;;16.60;49.10;;;;;;5067877;28;46393;-71
2022/08/04 03:27:08;;;;;;;9.03;3.80;;;16.60;49.50;;;;;;5065475;28;46360;-71
2022/08/04 03:29:54;;;;;;;6.10;3.53;;;16.60;49.70;;;;;;5056215;28;46561;-71
2022/08/04 03:32:53;;;;;;;6.97;3.10;;;16.60;49.20;;;;;;5076786;28;46202;-71
2022/08/04 03:35:54;;;;;;;5.10;2.67;;;16.60;49.70;;;;;;5066077;28;47249;-70
2022/08/04 03:38:37;;;;;;;9.03;3.60;;;16.60;49.90;;;;;;5063902;28;46468;-70
2022/08/04 03:41:26;;;;;;;7.00;3.30;;;16.50;49.80;;;;;;5064619;28;46164;-71
2022/08/04 03:44:00;;;;;;;6.13;3.00;;;16.50;50.10;;;;;;5064490;28;46869;-70
2022/08/04 03:46:40;;;;;;;15.17;3.67;;;16.40;50.00;;;;;;5064983;28;46263;-70
2022/08/04 03:49:11;;;;;;;10.10;3.40;;;16.40;50.10;;;;;;5063881;28;46421;-71
2022/08/04 03:55:07;;;;;;;9.23;3.80;;;16.40;50.40;;;;;;5066219;28;46396;-71
2022/08/04 03:57:47;;;;;;;12.70;3.67;;;16.40;51.00;;;;;;5065384;28;46691;-71
2022/08/04 04:00:17;;;;;;;9.43;3.60;;;16.20;50.80;;;;;;5064587;28;46241;-71
2022/08/04 04:02:57;;;;;;;7.77;3.27;;;16.30;50.80;;;;;;5068085;28;45806;-71
2022/08/04 04:05:38;;;;;;;14.03;3.93;;;16.20;51.00;;;;;;5064020;28;46425;-71
2022/08/04 04:08:22;;;;;;;15.00;3.67;;;16.20;50.90;;;;;;5063107;28;46393;-72
2022/08/04 04:11:16;;;;;;;8.43;2.77;;;16.10;51.30;;;;;;5066158;28;45770;-70
2022/08/04 04:14:16;;;;;;;8.20;3.13;;;16.10;51.30;;;;;;5064925;28;46435;-71
2022/08/04 04:17:07;;;;;;;6.87;3.50;;;16.20;51.20;;;;;;5059347;28;45933;-70
2022/08/04 04:19:58;;;;;;;14.43;4.23;;;16.20;50.70;;;;;;5059396;28;46419;-72
2022/08/04 04:22:41;;;;;;;4.13;2.90;;;16.30;50.80;;;;;;5063927;28;46490;-71
2022/08/04 04:25:41;;;;;;;5.70;3.23;;;16.30;50.50;;;;;;5061936;28;46424;-73
2022/08/04 04:29:00;;;;;;;7.63;4.27;;;16.40;50.30;;;;;;4991022;28;46496;-72
2022/08/04 04:31:32;;;;;;;7.83;3.50;;;16.60;50.30;;;;;;5020154;28;46563;-72
2022/08/04 04:34:16;;;;;;;5.43;3.87;;;16.70;49.40;;;;;;5058632;28;46092;-72
2022/08/04 04:36:47;;;;;;;7.40;3.17;;;16.80;49.30;;;;;;5062484;28;46484;-72
2022/08/04 04:39:34;;;;;;;8.33;3.43;;;16.90;49.10;;;;;;5063089;28;46303;-72
2022/08/04 04:42:36;;;;;;;14.17;3.03;;;16.90;49.30;;;;;;5061665;28;47088;-72
2022/08/04 04:45:41;;;;;;;7.57;3.57;;;17.00;48.50;;;;;;5064437;28;46405;-73
2022/08/04 04:48:42;;;;;;;5.93;3.77;;;17.00;49.50;;;;;;5043108;28;46362;-72
2022/08/04 04:51:41;;;;;;;5.87;3.63;;;17.00;49.60;;;;;;5063011;28;46428;-70
2022/08/04 04:54:31;;;;;;;11.43;3.37;;;17.00;49.70;;;;;;5038129;28;46983;-72
2022/08/04 04:57:10;;;;;;;5.50;3.30;;;17.10;49.70;;;;;;5060627;28;46367;-72
2022/08/04 04:59:43;;;;;;;5.80;3.87;;;17.20;49.40;;;;;;5062407;28;46438;-73
2022/08/04 05:02:42;;;;;;;7.20;3.50;;;17.40;48.60;;;;;;5061827;28;46534;-74
2022/08/04 05:05:33;;;;;;;3.90;2.87;;;18.90;47.40;;;;;;5061074;28;46989;-73
2022/08/04 05:08:36;;;;;;;4.97;3.17;;;20.70;44.50;;;;;;5060383;28;46488;-72
2022/08/04 05:11:28;;;;;;;4.97;2.70;;;22.20;40.80;;;;;;5059208;28;46504;-74
2022/08/04 05:13:59;;;;;;;6.00;2.70;;;23.50;37.30;;;;;;5059353;28;45796;-74
2022/08/04 05:16:34;;;;;;;7.63;2.60;;;24.60;35.70;;;;;;5059740;28;47195;-72
2022/08/04 05:19:29;;;;;;;5.33;3.17;;;24.90;34.20;;;;;;5061223;28;45865;-73
2022/08/04 05:22:07;;;;;;;12.93;2.97;;;25.30;32.60;;;;;;5058618;28;46506;-73
2022/08/04 05:24:37;;;;;;;5.80;3.47;;;26.30;30.30;;;;;;5060512;28;46471;-73
2022/08/04 05:27:08;;;;;;;10.40;3.53;;;27.10;28.80;;;;;;5060218;28;46549;-73
2022/08/04 05:29:40;;;;;;;10.03;2.83;;;27.80;27.20;;;;;;5061243;28;46406;-73
2022/08/04 05:32:12;;;;;;;6.90;2.90;;;28.50;24.80;;;;;;5063090;28;46381;-71
2022/08/04 05:34:51;;;;;;;3.87;2.60;;;29.30;22.60;;;;;;5061593;28;45983;-71
2022/08/04 05:37:19;;;;;;;7.03;2.90;;;30.20;20.00;;;;;;5062366;28;46441;-72
2022/08/04 05:39:55;;;;;;;7.70;3.63;;;30.70;18.60;;;;;;5063297;28;46366;-72
2022/08/04 05:42:21;;;;;;;6.27;3.03;;;31.10;17.20;;;;;;5060824;28;45801;-73
2022/08/04 05:44:47;;;;;;;4.10;2.70;;;31.30;16.30;;;;;;5063041;28;46417;-73
2022/08/04 05:47:15;;;;;;;7.63;2.80;;;31.40;15.40;;;;;;5060386;28;47949;-73
2022/08/04 05:49:42;;;;;;;9.10;2.57;;;31.60;14.90;;;;;;5061286;28;46576;-72
2022/08/04 05:52:09;;;;;;;9.17;2.63;;;31.90;14.20;;;;;;5063324;28;46413;-69
2022/08/04 05:54:37;;;;;;;8.23;3.00;;;32.10;13.30;;;;;;5063543;28;45835;-72
2022/08/04 05:57:04;;;;;;;5.87;3.20;;;32.30;12.90;;;;;;5064611;28;46597;-70
2022/08/04 05:59:33;;;;;;;7.10;2.87;;;32.60;12.60;;;;;;5065191;28;46385;-71
2022/08/04 06:02:01;;;;;;;6.30;2.63;;;32.90;12.10;;;;;;5065079;28;45971;-70
2022/08/04 06:04:31;;;;;;;9.30;2.70;;;33.00;11.70;;;;;;5061553;28;46434;-70
2022/08/04 06:06:57;;;;;;;4.60;3.00;;;33.10;11.20;;;;;;5060675;28;46618;-70
2022/08/04 06:09:23;;;;;;;7.00;3.23;;;33.20;10.90;;;;;;5062966;28;45873;-69
2022/08/04 06:11:50;;;;;;;10.53;2.70;;;33.40;10.30;;;;;;5061176;28;46561;-69
2022/08/04 06:14:19;;;;;;;4.63;2.50;;;33.40;9.40;;;;;;5060239;28;45924;-69
2022/08/04 06:16:48;;;;;;;9.73;2.77;;;33.50;9.20;;;;;;5059716;28;46358;-70
2022/08/04 06:19:15;;;;;;;7.30;3.47;;;33.60;8.90;;;;;;5059356;28;46366;-69
2022/08/04 06:21:47;;;;;;;5.40;3.00;;;33.60;8.10;;;;;;5064804;28;46484;-70
2022/08/04 06:24:16;;;;;;;4.73;2.87;;;34.10;7.50;;;;;;5061753;28;45883;-69
2022/08/04 06:26:44;;;;;;;9.33;3.63;;;34.30;7.80;;;;;;5059938;28;46274;-70
2022/08/04 06:29:19;;;;;;;8.90;3.40;;;34.20;8.40;;;;;;5061643;28;46302;-70
2022/08/04 06:31:56;;;;;;;12.07;3.33;;;32.50;11.00;;;;;;5059926;28;46530;-72
2022/08/04 06:34:22;;;;;;;10.53;3.90;;;31.20;14.20;;;;;;5058007;28;46560;-68
2022/08/04 06:36:49;;;;;;;6.43;3.50;;;30.30;16.00;;;;;;5059471;28;46493;-68
2022/08/04 06:39:15;;;;;;;11.37;3.47;;;29.80;16.50;;;;;;5057177;28;46150;-70
2022/08/04 06:41:41;;;;;;;9.67;4.00;;;30.70;13.60;;;;;;5060241;28;46121;-67
2022/08/04 06:44:09;;;;;;;6.50;3.00;;;32.10;8.70;;;;;;5059370;28;46441;-68
2022/08/04 06:46:37;;;;;;;11.07;3.10;;;32.60;8.50;;;;;;5058410;28;46358;-68
2022/08/04 06:49:04;;;;;;;6.97;3.13;;;33.10;7.80;;;;;;5059245;28;46445;-69
2022/08/04 06:51:32;;;;;;;7.63;3.40;;;33.60;6.40;;;;;;5058614;28;46350;-68
2022/08/04 06:53:58;;;;;;;5.63;2.83;;;34.20;4.50;;;;;;5056200;28;46444;-69
2022/08/04 06:56:26;;;;;;;5.67;3.10;;;34.40;5.30;;;;;;5058199;28;48036;-68
2022/08/04 06:58:53;;;;;;;7.73;3.87;;;34.80;4.40;;;;;;5057866;28;46754;-70
2022/08/04 07:01:20;;;;;;;5.83;3.23;;;35.10;3.60;;;;;;5058039;28;46407;-68
2022/08/04 07:03:47;;;;;;;8.57;2.87;;;34.40;3.50;;;;;;5058253;28;46433;-68
2022/08/04 07:06:13;;;;;;;9.80;3.03;;;34.00;5.10;;;;;;5058610;28;47136;-70
2022/08/04 07:08:39;;;;;;;4.43;3.03;;;32.80;7.70;;;;;;5058396;28;46443;-68
2022/08/04 07:11:05;;;;;;;7.00;2.97;;;31.60;10.60;;;;;;5057536;28;46469;-68
2022/08/04 07:13:31;;;;;;;4.80;2.80;;;30.30;12.20;;;;;;5057392;28;46749;-69
2022/08/04 07:15:58;;;;;;;9.60;2.87;;;30.10;13.50;;;;;;5059241;28;47162;-71
2022/08/04 07:18:24;;;;;;;4.27;3.13;;;29.60;14.20;;;;;;5058021;28;46398;-69
2022/08/04 07:20:51;;;;;;;6.67;3.00;;;29.10;14.70;;;;;;5059108;28;45874;-69
2022/08/04 07:23:23;;;;;;;6.93;3.60;;;28.80;14.50;;;;;;5056930;28;46427;-66
2022/08/04 07:25:53;;;;;;;8.70;3.30;;;28.80;15.70;;;;;;5054117;28;46636;-67
2022/08/04 07:28:20;;;;;;;6.00;3.37;;;28.70;16.00;;;;;;5054464;28;46474;-67
2022/08/04 07:30:48;;;;;;;5.67;3.20;;;28.60;16.00;;;;;;5056060;28;46579;-66
2022/08/04 07:33:15;;;;;;;6.10;3.13;;;28.50;16.40;;;;;;5058141;28;45962;-67
2022/08/04 07:35:42;;;;;;;6.03;3.37;;;28.60;16.20;;;;;;5060628;28;47155;-65
2022/08/04 07:38:10;;;;;;;7.57;3.10;;;28.70;16.30;;;;;;5059032;28;46446;-66
2022/08/04 07:40:36;;;;;;;6.10;3.60;;;28.70;16.40;;;;;;5061888;28;46681;-68
2022/08/04 07:43:02;;;;;;;17.13;3.50;;;28.70;16.00;;;;;;5062303;28;46375;-68
2022/08/04 07:45:27;;;;;;;5.70;3.40;;;28.60;16.80;;;;;;5062091;28;47190;-67
2022/08/04 07:47:53;;;;;;;10.63;3.80;;;28.40;16.70;;;;;;5060732;28;45869;-67
2022/08/04 07:50:19;;;;;;;5.37;3.50;;;28.40;16.80;;;;;;5061986;28;46327;-67
2022/08/04 07:52:46;;;;;;;6.10;3.47;;;28.50;16.70;;;;;;5061999;28;46380;-69
2022/08/04 07:55:12;;;;;;;6.90;3.40;;;28.60;15.90;;;;;;5063628;28;46085;-65
2022/08/04 07:57:39;;;;;;;6.30;3.67;;;28.80;17.00;;;;;;5059088;28;46078;-69
2022/08/04 08:00:05;;;;;;;6.50;3.27;;;29.00;17.00;;;;;;5058102;28;46584;-68
2022/08/04 08:02:33;;;;;;;11.40;3.90;;;29.00;16.80;;;;;;5060267;28;46347;-69
2022/08/04 08:05:00;;;;;;;6.27;3.17;;;29.30;15.60;;;;;;5060884;28;46524;-69
2022/08/04 08:07:25;;;;;;;5.70;3.57;;;29.40;16.40;;;;;;5056534;28;46142;-68
2022/08/04 08:09:51;;;;;;;8.03;3.40;;;29.50;16.20;;;;;;5060486;28;45850;-70
2022/08/04 08:12:17;;;;;;;5.03;3.33;;;29.60;16.00;;;;;;5057572;28;46504;-70
2022/08/04 08:14:44;;;;;;;12.07;3.43;;;29.70;14.80;;;;;;5060221;28;46495;-70
2022/08/04 08:17:09;;;;;;;11.83;3.27;;;29.70;15.50;;;;;;5058601;28;46543;-69
2022/08/04 08:19:35;;;;;;;12.67;3.37;;;29.70;15.40;;;;;;5060267;28;46458;-71
2022/08/04 08:22:02;;;;;;;6.90;3.23;;;29.80;15.70;;;;;;5060525;28;46402;-69
2022/08/04 08:24:29;;;;;;;5.77;3.10;;;29.80;14.90;;;;;;5058324;28;46466;-71
2022/08/04 08:26:55;;;;;;;5.60;3.03;;;29.90;15.70;;;;;;5060361;28;46365;-70
2022/08/04 08:29:22;;;;;;;6.53;2.90;;;30.00;15.20;;;;;;5060772;28;46425;-69
2022/08/04 08:31:48;;;;;;;4.60;3.10;;;30.10;15.10;;;;;;5062800;28;45938;-69
2022/08/04 08:34:14;;;;;;;7.57;3.30;;;30.10;13.80;;;;;;5066754;28;46470;-72
2022/08/04 08:36:52;;;;;;;4.67;3.00;;;30.00;14.50;;;;;;5063752;28;46400;-68
2022/08/04 08:39:23;;;;;;;4.10;3.03;;;30.00;14.60;;;;;;5060148;28;46430;-69
2022/08/04 08:42:10;;;;;;;6.00;3.00;;;29.90;15.00;;;;;;5059131;28;46812;-70
2022/08/04 08:45:13;;;;;;;3.87;2.70;;;30.20;14.20;;;;;;5054913;28;75446;-69
2022/08/04 08:48:05;;;;;;;5.73;2.97;;;30.30;14.90;;;;;;5058460;28;46507;-68
2022/08/04 08:51:08;;;;;;;5.70;3.03;;;30.50;14.30;;;;;;5059809;28;47204;-69
2022/08/04 08:54:04;;;;;;;4.73;3.20;;;30.60;13.10;;;;;;5059653;28;46410;-69
2022/08/04 08:56:56;;;;;;;4.47;2.47;;;30.50;12.90;;;;;;5058182;28;46609;-69
2022/08/04 08:59:43;;;;;;;7.60;3.20;;;30.60;12.70;;;;;;5060782;28;46368;-70
2022/08/04 09:02:12;;;;;;;5.47;3.10;;;30.60;12.20;;;;;;5058594;28;46702;-69
2022/08/04 09:05:01;;;;;;;5.13;3.23;;;30.60;11.20;;;;;;5058109;28;46482;-69
2022/08/04 09:07:37;;;;;;;10.50;3.30;;;30.60;11.80;;;;;;5058123;28;47076;-68
2022/08/04 09:10:19;;;;;;;4.40;3.00;;;30.80;11.80;;;;;;5059688;28;47296;-69
2022/08/04 09:12:51;;;;;;;7.43;2.97;;;31.00;11.90;;;;;;5059301;28;46438;-69
2022/08/04 09:15:38;;;;;;;3.80;2.70;;;31.10;10.90;;;;;;5058874;28;45874;-69
2022/08/04 09:18:16;;;;;;;5.70;2.50;;;31.20;11.30;;;;;;5057750;28;47153;-68
2022/08/04 09:21:03;;;;;;;5.37;3.20;;;31.20;11.10;;;;;;5058719;28;46334;-69
2022/08/04 09:23:43;;;;;;;5.33;2.70;;;31.50;10.30;;;;;;5060395;28;46540;-69
2022/08/04 09:26:24;;;;;;;3.73;2.70;;;31.50;10.60;;;;;;5060227;28;46331;-69
2022/08/04 09:28:56;;;;;;;6.47;3.30;;;31.60;10.10;;;;;;5057046;28;46334;-69
2022/08/04 09:31:32;;;;;;;6.53;2.67;;;31.60;10.20;;;;;;5058408;28;46423;-69
2022/08/04 09:34:34;;;;;;;3.67;2.40;;;31.40;9.80;;;;;;5060646;28;46408;-69
2022/08/04 09:37:18;;;;;;;5.90;2.87;;;31.50;10.50;;;;;;5059416;28;46536;-70
2022/08/04 09:39:58;;;;;;;6.43;3.30;;;31.60;10.30;;;;;;5059183;28;46495;-70
2022/08/04 09:42:35;;;;;;;4.30;2.63;;;31.40;10.10;;;;;;5058302;28;46733;-71
2022/08/04 09:45:13;;;;;;;6.20;2.73;;;31.50;8.90;;;;;;5058476;28;46380;-69
2022/08/04 09:47:55;;;;;;;9.47;2.63;;;31.50;9.50;;;;;;5058601;28;46450;-69
2022/08/04 09:50:27;;;;;;;5.57;2.30;;;31.40;9.40;;;;;;5060932;28;47258;-71
2022/08/04 09:53:04;;;;;;;6.30;2.93;;;31.50;7.90;;;;;;5058429;28;46373;-69
2022/08/04 09:55:45;;;;;;;28.47;2.60;;;31.50;8.70;;;;;;5059799;28;47419;-69
2022/08/04 09:58:38;;;;;;;7.43;2.43;;;31.60;7.80;;;;;;5058878;28;46441;-69
2022/08/04 10:01:09;;;;;;;10.50;3.20;;;31.60;7.90;;;;;;5056338;28;46997;-70
2022/08/04 10:03:38;;;;;;;5.00;2.13;;;31.50;7.30;;;;;;5059644;28;45834;-70
2022/08/04 10:06:18;;;;;;;10.90;2.57;;;31.50;8.10;;;;;;5059573;28;46488;-71
2022/08/04 10:09:04;;;;;;;3.63;2.50;;;31.50;7.90;;;;;;5057938;28;46757;-71
2022/08/04 10:12:00;;;;;;;4.47;2.37;;;31.70;7.50;;;;;;5060022;28;46413;-70
2022/08/04 10:14:37;;;;;;;7.27;2.67;;;31.70;6.20;;;;;;5057528;28;46328;-68
2022/08/04 10:17:15;;;;;;;4.17;2.17;;;31.60;7.00;;;;;;5058885;28;46294;-68
2022/08/04 10:19:41;;;;;;;5.60;2.37;;;31.80;7.10;;;;;;5059901;28;46421;-70
2022/08/04 10:22:16;;;;;;;5.33;2.30;;;31.90;7.10;;;;;;5059577;28;47220;-69
2022/08/04 10:24:52;;;;;;;4.70;2.03;;;31.90;6.20;;;;;;5058646;28;46467;-70
2022/08/04 10:27:29;;;;;;;3.17;2.23;;;32.10;6.40;;;;;;5058732;28;46349;-70
2022/08/04 10:30:01;;;;;;;5.53;2.03;;;32.30;5.60;;;;;;5061142;28;46357;-70
2022/08/04 10:32:39;;;;;;;3.37;2.07;;;32.30;5.10;;;;;;5058628;28;47238;-70
2022/08/04 10:35:08;;;;;;;2.80;1.90;;;32.30;4.40;;;;;;5059704;28;46476;-70
2022/08/04 10:38:06;;;;;;;4.60;2.30;;;32.50;5.50;;;;;;5057020;28;46459;-69
2022/08/04 10:41:09;;;;;;;4.20;1.80;;;32.50;5.20;;;;;;5059994;28;46473;-71
2022/08/04 10:43:34;;;;;;;5.47;2.20;;;32.50;4.40;;;;;;5058783;28;47257;-71
2022/08/04 10:46:15;;;;;;;5.07;2.40;;;32.30;5.70;;;;;;5059158;28;46481;-70
2022/08/04 10:49:06;;;;;;;3.77;2.40;;;32.40;5.00;;;;;;5059365;28;45870;-69
2022/08/04 10:51:53;;;;;;;6.43;2.10;;;32.30;4.80;;;;;;5059134;28;46484;-69
2022/08/04 10:54:46;;;;;;;4.27;1.90;;;32.20;4.10;;;;;;5056531;28;47007;-69
2022/08/04 10:57:30;;;;;;;8.70;2.47;;;32.20;4.90;;;;;;5057270;28;46465;-71
2022/08/04 11:00:00;;;;;;;3.90;2.23;;;32.40;4.60;;;;;;5058826;28;45984;-69
2022/08/04 11:02:33;;;;;;;3.90;2.20;;;32.50;4.30;;;;;;5059614;28;46562;-70
2022/08/04 11:05:13;;;;;;;6.60;2.53;;;32.50;3.10;;;;;;5058420;28;46346;-70
2022/08/04 11:07:42;;;;;;;3.60;2.07;;;32.50;3.80;;;;;;5057710;28;46361;-70
2022/08/04 11:10:08;;;;;;;2.83;2.03;;;32.50;3.80;;;;;;5060822;28;46371;-68
2022/08/04 11:12:36;;;;;;;3.73;2.10;;;32.60;3.90;;;;;;5062954;28;46431;-70
2022/08/04 11:15:10;;;;;;;3.23;1.70;;;32.70;2.70;;;;;;5060963;28;46503;-70
2022/08/04 11:17:58;;;;;;;4.77;2.20;;;32.80;3.50;;;;;;5061344;28;46431;-70
2022/08/04 11:20:41;;;;;;;6.37;1.93;;;32.80;3.80;;;;;;5060712;28;45941;-70
2022/08/04 11:23:12;;;;;;;2.97;2.10;;;32.90;2.80;;;;;;5061366;28;46521;-70
2022/08/04 11:26:23;;;;;;;4.87;2.50;;;32.90;3.50;;;;;;5062958;28;47641;-69
2022/08/04 11:29:27;;;;;;;3.53;2.27;;;32.80;4.10;;;;;;5041039;28;46530;-71
2022/08/04 11:31:58;;;;;;;5.90;2.67;;;32.80;4.80;;;;;;5029426;28;46528;-70
2022/08/04 11:34:25;;;;;;;14.20;2.63;;;32.80;4.00;;;;;;5060249;28;46408;-69
2022/08/04 11:37:10;;;;;;;4.20;2.20;;;32.70;4.80;;;;;;5062370;28;47038;-70
2022/08/04 11:39:42;;;;;;;4.50;2.00;;;32.60;4.40;;;;;;5059197;28;45786;-70
2022/08/04 11:42:13;;;;;;;4.87;2.27;;;32.60;4.30;;;;;;5061859;28;46646;-69
2022/08/04 11:45:05;;;;;;;3.40;2.23;;;32.60;3.20;;;;;;5062175;28;46408;-69
2022/08/04 11:47:40;;;;;;;3.27;2.10;;;32.80;3.90;;;;;;5062250;28;46296;-70
2022/08/04 11:50:43;;;;;;;4.40;2.00;;;32.90;3.60;;;;;;5062308;28;46425;-70
2022/08/04 11:53:15;;;;;;;8.00;2.13;;;32.70;3.00;;;;;;5061740;28;46515;-70
2022/08/04 11:55:44;;;;;;;5.40;1.93;;;32.70;3.80;;;;;;5060784;28;46511;-70
2022/08/04 11:58:10;;;;;;;5.00;2.47;;;32.70;3.30;;;;;;5061300;28;46405;-68
2022/08/04 12:00:41;;;;;;;3.20;2.30;;;32.80;3.20;;;;;;5060408;28;46334;-70
2022/08/04 12:03:25;;;;;;;4.23;2.50;;;32.90;2.00;;;;;;5061083;28;46429;-70
2022/08/04 12:06:22;;;;;;;8.30;2.40;;;32.90;2.50;;;;;;5058728;28;46444;-68
2022/08/04 12:08:56;;;;;;;7.30;2.30;;;33.10;2.40;;;;;;5059546;28;46298;-69
2022/08/04 12:11:53;;;;;;;3.17;2.33;;;33.30;2.60;;;;;;5059188;28;46423;-68
2022/08/04 12:14:32;;;;;;;3.20;2.10;;;33.40;1.90;;;;;;5060324;28;46391;-69
2022/08/04 12:17:03;;;;;;;2.90;2.10;;;33.30;2.00;;;;;;5059573;28;46467;-68
2022/08/04 12:19:37;;;;;;;3.13;2.20;;;33.20;1.80;;;;;;5059635;28;46447;-69
2022/08/04 12:22:08;;;;;;;2.80;2.00;;;33.10;1.60;;;;;;5059466;28;46364;-68
2022/08/04 12:24:39;;;;;;;15.87;2.30;;;33.10;1.00;;;;;;5060221;28;46503;-69
2022/08/04 12:27:17;;;;;;;10.47;2.10;;;33.10;2.10;;;;;;5061359;28;46401;-71
2022/08/04 12:29:44;;;;;;;4.30;2.60;;;33.20;1.80;;;;;;5058457;28;47079;-70
2022/08/04 12:32:37;;;;;;;4.90;2.37;;;33.20;2.10;;;;;;5058404;28;46729;-70
2022/08/04 12:35:13;;;;;;;2.90;2.00;;;33.20;1.00;;;;;;5057284;28;46282;-70
2022/08/04 12:37:55;;;;;;;5.53;2.60;;;33.10;1.90;;;;;;5057479;28;46542;-69
2022/08/04 12:40:34;;;;;;;2.87;2.00;;;33.10;1.20;;;;;;5058572;28;47041;-70
2022/08/04 12:43:12;;;;;;;3.90;2.53;;;33.10;1.00;;;;;;5054440;28;46460;-69
2022/08/04 12:45:45;;;;;;;3.50;1.93;;;33.10;1.00;;;;;;5059161;28;46500;-70
2022/08/04 12:48:12;;;;;;;3.00;2.20;;;33.20;1.30;;;;;;5060017;28;46347;-69
2022/08/04 12:50:38;;;;;;;2.70;2.00;;;33.30;1.00;;;;;;5061968;28;46644;-70
2022/08/04 12:53:11;;;;;;;4.10;2.00;;;33.40;1.00;;;;;;5060858;28;46395;-70
2022/08/04 12:55:43;;;;;;;3.77;2.20;;;33.40;1.30;;;;;;5058129;28;45852;-70
2022/08/04 12:58:17;;;;;;;3.10;2.20;;;33.40;1.50;;;;;;5059061;28;46527;-66
2022/08/04 13:00:47;;;;;;;3.37;2.30;;;33.40;1.40;;;;;;5058375;28;46409;-68
2022/08/04 13:03:15;;;;;;;4.30;2.03;;;33.50;1.00;;;;;;5057873;28;46447;-68
2022/08/04 13:05:41;;;;;;;5.93;2.17;;;33.50;1.30;;;;;;5059029;28;46462;-68
2022/08/04 13:08:09;;;;;;;3.03;2.27;;;33.40;1.00;;;;;;5058725;28;46215;-68
2022/08/04 13:10:46;;;;;;;3.63;2.00;;;33.50;1.00;;;;;;5059468;28;47090;-68
2022/08/04 13:13:23;;;;;;;4.83;2.30;;;33.60;1.00;;;;;;5060034;28;46405;-73
2022/08/04 13:16:00;;;;;;;4.57;2.27;;;33.60;1.20;;;;;;5058511;28;46392;-69
2022/08/04 13:18:29;;;;;;;8.93;2.30;;;33.80;1.20;;;;;;5061186;28;46424;-68
2022/08/04 13:20:55;;;;;;;13.60;2.40;;;33.90;1.00;;;;;;5059970;28;46595;-69
2022/08/04 13:23:24;;;;;;;4.87;2.20;;;33.80;1.00;;;;;;5060277;28;46618;-69
2022/08/04 13:25:54;;;;;;;8.00;2.00;;;33.80;1.00;;;;;;5062547;28;46432;-68
2022/08/04 13:28:21;;;;;;;7.90;2.47;;;33.70;1.00;;;;;;5059780;28;46288;-69
2022/08/04 13:30:52;;;;;;;6.07;2.47;;;33.60;1.00;;;;;;5059225;28;46185;-70
2022/08/04 13:33:19;;;;;;;3.30;2.13;;;33.50;1.00;;;;;;5057608;28;45942;-70
2022/08/04 13:35:47;;;;;;;3.00;1.97;;;33.50;1.50;;;;;;5059349;28;46423;-69
2022/08/04 13:38:14;;;;;;;4.93;2.17;;;33.60;1.00;;;;;;5059843;28;46643;-69